Wetterdaten: Woche 05.10.20 - 11.10.20 (KW41)
Datum Zeit Temp. Aussen Temp. o. S. Temp +5cm Feuchte Auss Luftdruck Regen Sonnenschein Regendauer Solar Windben Empfang
05.10.2020 00:00 10,6 C 10,0 C 9,4 C 92 % 998,0 hPa 0,0 l/m 0,00 h 0,00 h 0 W/m 22,0 km/h (4 Bft) 95,71 %
05.10.2020 01:00 11,1 C 10,4 C 9,9 C 91 % 998,1 hPa 0,0 l/m 0,00 h 0,00 h 0 W/m 23,6 km/h (4 Bft) 98,44 %
05.10.2020 02:00 11,0 C 10,1 C 9,6 C 91 % 998,2 hPa 0,0 l/m 0,00 h 0,00 h 0 W/m 20,4 km/h (4 Bft) 97,29 %
05.10.2020 03:00 11,0 C 10,5 C 10,0 C 91 % 998,2 hPa 0,0 l/m 0,00 h 0,00 h 0 W/m 20,7 km/h (4 Bft) 96,13 %
05.10.2020 04:00 10,8 C 10,0 C 9,4 C 90 % 998,0 hPa 0,0 l/m 0,00 h 0,00 h 0 W/m 24,7 km/h (4 Bft) 98,46 %
05.10.2020 05:00 10,8 C 10,0 C 9,4 C 90 % 998,2 hPa 0,0 l/m 0,00 h 0,00 h 0 W/m 25,7 km/h (4 Bft) 100,00 %
05.10.2020 06:00 10,7 C 10,0 C 9,4 C 90 % 998,3 hPa 0,0 l/m 0,00 h 0,00 h 0 W/m 23,3 km/h (4 Bft) 98,47 %
05.10.2020 07:00 10,8 C 10,0 C 9,7 C 90 % 998,2 hPa 0,0 l/m 0,00 h 0,00 h 5 W/m 25,5 km/h (4 Bft) 99,50 %
05.10.2020 08:00 11,0 C 10,2 C 9,7 C 90 % 998,5 hPa 0,0 l/m 0,00 h 0,30 h 12 W/m 19,3 km/h (3 Bft) 97,99 %
05.10.2020 09:00 11,1 C 9,6 C 9,4 C 91 % 998,7 hPa 0,2 l/m 0,00 h 1,00 h 45 W/m 18,2 km/h (3 Bft) 97,07 %
05.10.2020 10:00 11,1 C 9,4 C 9,4 C 92 % 998,9 hPa 0,8 l/m 0,00 h 0,87 h 59 W/m 19,1 km/h (3 Bft) 94,78 %
05.10.2020 11:00 11,1 C 9,7 C 9,6 C 93 % 999,2 hPa 0,0 l/m 0,00 h 0,03 h 87 W/m 17,8 km/h (3 Bft) 98,50 %
05.10.2020 12:00 11,2 C 10,4 C 10,0 C 94 % 999,5 hPa 0,0 l/m 0,00 h 0,07 h 74 W/m 16,1 km/h (3 Bft) 95,63 %
05.10.2020 13:00 11,6 C 10,4 C 10,0 C 94 % 999,6 hPa 0,2 l/m 0,00 h 0,20 h 60 W/m 10,1 km/h (2 Bft) 96,30 %
05.10.2020 14:00 12,1 C 11,7 C 10,9 C 93 % 999,8 hPa 0,0 l/m 0,00 h 0,00 h 76 W/m 11,5 km/h (2 Bft) 97,50 %
05.10.2020 15:00 12,9 C 12,0 C 11,2 C 91 % 999,9 hPa 0,2 l/m 0,07 h 0,20 h 106 W/m 10,8 km/h (2 Bft) 95,78 %
05.10.2020 16:00 13,8 C 13,1 C 12,0 C 88 % 1000,2 hPa 0,0 l/m 0,10 h 0,00 h 112 W/m 19,2 km/h (3 Bft) 94,38 %
05.10.2020 17:00 14,3 C 14,0 C 12,2 C 83 % 1000,5 hPa 0,0 l/m 0,30 h 0,00 h 97 W/m 22,5 km/h (4 Bft) 97,21 %
05.10.2020 18:00 14,0 C 13,0 C 11,6 C 84 % 1001,0 hPa 0,0 l/m 0,20 h 0,00 h 30 W/m 16,4 km/h (3 Bft) 96,14 %
05.10.2020 19:00 13,3 C 11,8 C 10,8 C 86 % 1001,3 hPa 0,0 l/m 0,00 h 0,00 h 0 W/m 6,2 km/h (2 Bft) 96,74 %
05.10.2020 20:00 12,8 C 11,6 C 10,7 C 89 % 1001,5 hPa 0,0 l/m 0,00 h 0,00 h 0 W/m 6,3 km/h (2 Bft) 96,90 %
05.10.2020 21:00 12,3 C 11,1 C 10,5 C 90 % 1001,5 hPa 0,0 l/m 0,00 h 0,03 h 0 W/m 5,7 km/h (1 Bft) 97,15 %
05.10.2020 22:00 11,9 C 10,8 C 10,0 C 91 % 1001,1 hPa 0,0 l/m 0,00 h 0,00 h 0 W/m 7,6 km/h (2 Bft) 99,07 %
05.10.2020 23:00 11,4 C 10,3 C 9,6 C 91 % 1001,0 hPa 0,0 l/m 0,00 h 0,00 h 0 W/m 7,4 km/h (2 Bft) 95,73 %
06.10.2020 00:00 11,2 C 10,6 C 10,0 C 92 % 1000,7 hPa 0,0 l/m 0,00 h 0,00 h 0 W/m 13,0 km/h (3 Bft) 97,92 %
06.10.2020 01:00 11,9 C 11,3 C 10,7 C 94 % 1000,7 hPa 0,2 l/m 0,00 h 0,37 h 0 W/m 14,9 km/h (3 Bft) 99,29 %
06.10.2020 02:00 12,4 C 11,0 C 10,6 C 95 % 1000,6 hPa 0,2 l/m 0,00 h 0,37 h 0 W/m 13,3 km/h (3 Bft) 95,09 %
06.10.2020 03:00 12,7 C 11,7 C 11,1 C 96 % 1000,5 hPa 0,0 l/m 0,00 h 0,00 h 0 W/m 20,2 km/h (4 Bft) 98,57 %
06.10.2020 04:00 12,9 C 11,8 C 11,7 C 96 % 1000,6 hPa 0,0 l/m 0,00 h 0,00 h 0 W/m 15,3 km/h (3 Bft) 96,75 %
06.10.2020 05:00 12,5 C 11,2 C 11,0 C 96 % 1001,0 hPa 0,0 l/m 0,00 h 0,30 h 0 W/m 20,8 km/h (4 Bft) 96,30 %
06.10.2020 06:00 12,0 C 11,1 C 10,6 C 95 % 1001,3 hPa 0,0 l/m 0,00 h 0,00 h 0 W/m 27,1 km/h (4 Bft) 98,13 %
06.10.2020 07:00 11,9 C 11,4 C 10,6 C 92 % 1001,4 hPa 0,0 l/m 0,00 h 0,00 h 5 W/m 23,9 km/h (4 Bft) 98,29 %
06.10.2020 08:00 11,9 C 11,4 C 10,7 C 91 % 1001,0 hPa 0,0 l/m 0,00 h 0,00 h 32 W/m 21,0 km/h (4 Bft) 96,94 %
06.10.2020 09:00 12,3 C 12,3 C 11,3 C 89 % 1000,7 hPa 0,0 l/m 0,03 h 0,00 h 64 W/m 20,1 km/h (4 Bft) 97,72 %
06.10.2020 10:00 12,7 C 11,7 C 11,2 C 90 % 1000,3 hPa 0,2 l/m 0,00 h 0,17 h 98 W/m 19,2 km/h (3 Bft) 97,30 %
06.10.2020 11:00 13,5 C 13,7 C 12,5 C 89 % 1000,0 hPa 0,0 l/m 0,00 h 0,00 h 128 W/m 23,4 km/h (4 Bft) 97,08 %
06.10.2020 12:00 14,6 C 15,5 C 13,5 C 85 % 999,6 hPa 0,0 l/m 0,23 h 0,00 h 257 W/m 25,4 km/h (4 Bft) 96,32 %
06.10.2020 13:00 16,0 C 16,8 C 14,7 C 82 % 999,2 hPa 0,0 l/m 0,20 h 0,17 h 277 W/m 26,3 km/h (4 Bft) 98,22 %
06.10.2020 14:00 14,5 C 13,3 C 12,5 C 90 % 999,0 hPa 0,4 l/m 0,30 h 0,50 h 246 W/m 22,7 km/h (4 Bft) 96,96 %
06.10.2020 15:00 15,0 C 14,9 C 13,6 C 89 % 998,9 hPa 0,0 l/m 0,27 h 0,00 h 187 W/m 24,3 km/h (4 Bft) 96,95 %
06.10.2020 16:00 15,7 C 17,7 C 15,3 C 82 % 998,8 hPa 0,0 l/m 0,97 h 0,00 h 372 W/m 29,3 km/h (5 Bft) 98,79 %
06.10.2020 17:00 15,6 C 15,9 C 13,7 C 80 % 999,0 hPa 0,0 l/m 0,50 h 0,00 h 151 W/m 25,2 km/h (4 Bft) 98,08 %
06.10.2020 18:00 14,5 C 13,6 C 12,9 C 83 % 999,5 hPa 0,0 l/m 0,00 h 0,00 h 21 W/m 26,2 km/h (4 Bft) 95,80 %
06.10.2020 19:00 13,8 C 12,8 C 12,2 C 86 % 1000,3 hPa 0,0 l/m 0,00 h 0,00 h 0 W/m 11,8 km/h (2 Bft) 98,15 %
06.10.2020 20:00 13,4 C 12,4 C 12,1 C 87 % 1000,6 hPa 0,0 l/m 0,00 h 0,00 h 0 W/m 19,1 km/h (3 Bft) 97,73 %
06.10.2020 21:00 13,1 C 12,2 C 11,7 C 89 % 1000,8 hPa 0,0 l/m 0,00 h 0,00 h 0 W/m 19,3 km/h (3 Bft) 96,82 %
06.10.2020 22:00 12,6 C 11,7 C 11,6 C 89 % 1001,1 hPa 0,0 l/m 0,00 h 0,00 h 0 W/m 22,0 km/h (4 Bft) 98,65 %
06.10.2020 23:00 12,5 C 11,7 C 11,4 C 90 % 1001,4 hPa 0,0 l/m 0,00 h 0,00 h 0 W/m 21,6 km/h (4 Bft) 96,37 %
07.10.2020 00:00 12,3 C 11,7 C 11,3 C 91 % 1001,8 hPa 0,2 l/m 0,00 h 0,00 h 0 W/m 18,1 km/h (3 Bft) 97,44 %
07.10.2020 01:00 12,3 C 10,7 C 10,7 C 92 % 1002,3 hPa 0,0 l/m 0,00 h 0,83 h 0 W/m 17,6 km/h (3 Bft) 99,72 %
07.10.2020 02:00 11,9 C 11,0 C 10,6 C 94 % 1002,6 hPa 0,0 l/m 0,00 h 0,17 h 0 W/m 18,7 km/h (3 Bft) 94,65 %
07.10.2020 03:00 12,0 C 11,2 C 10,8 C 94 % 1003,1 hPa 0,0 l/m 0,00 h 0,30 h 0 W/m 14,6 km/h (3 Bft) 98,65 %
07.10.2020 04:00 12,1 C 11,0 C 10,6 C 95 % 1003,7 hPa 0,2 l/m 0,00 h 0,20 h 0 W/m 15,4 km/h (3 Bft) 99,57 %
07.10.2020 05:00 12,0 C 11,3 C 10,8 C 95 % 1004,4 hPa 0,2 l/m 0,00 h 0,10 h 0 W/m 13,0 km/h (3 Bft) 93,61 %
07.10.2020 06:00 11,9 C 10,6 C 10,1 C 96 % 1005,3 hPa 2,8 l/m 0,00 h 1,00 h 0 W/m 12,1 km/h (2 Bft) 98,75 %
07.10.2020 07:00 11,6 C 10,4 C 10,0 C 97 % 1006,4 hPa 5,0 l/m 0,00 h 1,00 h 0 W/m 14,8 km/h (3 Bft) 98,80 %
07.10.2020 08:00 11,1 C 10,0 C 9,7 C 98 % 1007,6 hPa 1,0 l/m 0,00 h 0,40 h 21 W/m 6,2 km/h (2 Bft) 96,26 %
07.10.2020 09:00 11,6 C 11,1 C 10,3 C 98 % 1008,7 hPa 0,0 l/m 0,03 h 0,00 h 76 W/m 8,7 km/h (2 Bft) 94,64 %
07.10.2020 10:00 12,1 C 12,4 C 10,8 C 98 % 1009,8 hPa 0,0 l/m 0,07 h 0,00 h 128 W/m 8,9 km/h (2 Bft) 90,64 %
07.10.2020 11:00 12,6 C 12,2 C 11,0 C 95 % 1010,6 hPa 0,2 l/m 0,00 h 0,10 h 97 W/m 12,9 km/h (3 Bft) 96,67 %
07.10.2020 12:00 13,1 C 13,3 C 11,9 C 96 % 1011,1 hPa 0,0 l/m 0,17 h 0,00 h 193 W/m 14,2 km/h (3 Bft) 98,48 %
07.10.2020 13:00 13,5 C 12,5 C 11,9 C 93 % 1011,9 hPa 0,2 l/m 0,00 h 0,70 h 101 W/m 16,7 km/h (3 Bft) 94,89 %
07.10.2020 14:00 13,2 C 12,3 C 11,9 C 95 % 1012,5 hPa 0,0 l/m 0,00 h 0,37 h 112 W/m 12,7 km/h (3 Bft) 97,49 %
07.10.2020 15:00 13,6 C 13,6 C 12,2 C 92 % 1013,0 hPa 0,0 l/m 0,10 h 0,00 h 145 W/m 16,2 km/h (3 Bft) 98,49 %
07.10.2020 16:00 14,4 C 15,0 C 12,6 C 87 % 1013,5 hPa 0,2 l/m 0,30 h 0,00 h 163 W/m 15,5 km/h (3 Bft) 96,11 %
07.10.2020 17:00 14,4 C 14,0 C 12,7 C 84 % 1014,2 hPa 0,0 l/m 0,20 h 0,00 h 80 W/m 14,2 km/h (3 Bft) 97,80 %
07.10.2020 18:00 13,7 C 12,7 C 12,0 C 84 % 1014,8 hPa 0,0 l/m 0,00 h 0,00 h 25 W/m 11,7 km/h (2 Bft) 96,62 %
07.10.2020 19:00 13,0 C 12,0 C 11,5 C 85 % 1015,7 hPa 0,0 l/m 0,00 h 0,00 h 0 W/m 6,3 km/h (2 Bft) 98,15 %
07.10.2020 20:00 12,2 C 10,7 C 10,4 C 86 % 1016,6 hPa 0,0 l/m 0,00 h 0,00 h 0 W/m 1,2 km/h (1 Bft) 98,15 %
07.10.2020 21:00 11,1 C 9,7 C 9,5 C 88 % 1017,3 hPa 0,0 l/m 0,00 h 0,00 h 0 W/m 1,1 km/h (0 Bft) 96,54 %
07.10.2020 22:00 10,4 C 9,4 C 9,0 C 90 % 1017,6 hPa 0,0 l/m 0,00 h 0,00 h 0 W/m 1,8 km/h (1 Bft) 94,76 %
07.10.2020 23:00 10,2 C 9,2 C 8,9 C 91 % 1017,9 hPa 0,0 l/m 0,00 h 0,00 h 0 W/m 3,3 km/h (1 Bft) 99,57 %
08.10.2020 00:00 9,9 C 9,0 C 8,9 C 92 % 1017,9 hPa 0,0 l/m 0,00 h 0,00 h 0 W/m 8,7 km/h (2 Bft) 96,92 %
08.10.2020 01:00 9,9 C 9,4 C 8,9 C 92 % 1017,9 hPa 0,0 l/m 0,00 h 0,00 h 0 W/m 12,7 km/h (3 Bft) 98,18 %
08.10.2020 02:00 9,9 C 9,3 C 8,9 C 92 % 1017,8 hPa 0,0 l/m 0,00 h 0,00 h 0 W/m 13,3 km/h (3 Bft) 97,59 %
08.10.2020 03:00 10,1 C 9,4 C 8,9 C 92 % 1017,5 hPa 0,0 l/m 0,00 h 0,00 h 0 W/m 10,4 km/h (2 Bft) 96,38 %
08.10.2020 04:00 10,3 C 9,1 C 9,1 C 93 % 1017,3 hPa 0,2 l/m 0,00 h 0,53 h 0 W/m 3,5 km/h (1 Bft) 99,72 %
08.10.2020 05:00 10,4 C 9,0 C 8,9 C 94 % 1016,7 hPa 0,0 l/m 0,00 h 0,30 h 0 W/m 3,3 km/h (1 Bft) 95,44 %
08.10.2020 06:00 10,2 C 8,9 C 8,9 C 96 % 1015,9 hPa 0,0 l/m 0,00 h 0,57 h 0 W/m 10,2 km/h (2 Bft) 95,58 %
08.10.2020 07:00 10,3 C 9,3 C 9,1 C 97 % 1015,0 hPa 0,2 l/m 0,00 h 0,13 h 0 W/m 11,4 km/h (2 Bft) 98,09 %
08.10.2020 08:00 10,6 C 9,5 C 9,4 C 97 % 1014,5 hPa 0,0 l/m 0,00 h 0,10 h 10 W/m 13,1 km/h (3 Bft) 97,50 %
08.10.2020 09:00 11,4 C 10,9 C 10,5 C 98 % 1014,2 hPa 0,0 l/m 0,00 h 0,00 h 37 W/m 14,4 km/h (3 Bft) 95,00 %
08.10.2020 10:00 13,2 C 12,9 C 12,3 C 98 % 1013,7 hPa 0,0 l/m 0,00 h 0,00 h 65 W/m 22,9 km/h (4 Bft) 97,69 %
08.10.2020 11:00 14,7 C 14,4 C 13,6 C 90 % 1013,5 hPa 0,0 l/m 0,00 h 0,00 h 87 W/m 31,1 km/h (5 Bft) 97,71 %
08.10.2020 12:00 15,4 C 15,1 C 14,4 C 87 % 1013,4 hPa 0,0 l/m 0,00 h 0,00 h 79 W/m 31,7 km/h (5 Bft) 97,72 %
08.10.2020 13:00 16,3 C 16,5 C 15,2 C 86 % 1013,0 hPa 0,0 l/m 0,17 h 0,00 h 185 W/m 31,2 km/h (5 Bft) 98,65 %
08.10.2020 14:00 17,0 C 17,3 C 15,8 C 84 % 1012,7 hPa 0,0 l/m 0,27 h 0,00 h 192 W/m 32,7 km/h (5 Bft) 96,08 %
08.10.2020 15:00 17,0 C 16,7 C 15,7 C 85 % 1012,5 hPa 0,0 l/m 0,00 h 0,00 h 94 W/m 31,8 km/h (5 Bft) 97,65 %
08.10.2020 16:00 17,5 C 16,5 C 15,8 C 84 % 1012,2 hPa 0,2 l/m 0,00 h 0,23 h 74 W/m 34,3 km/h (5 Bft) 98,36 %
08.10.2020 17:00 16,1 C 13,9 C 13,9 C 92 % 1012,3 hPa 0,6 l/m 0,00 h 0,27 h 38 W/m 29,1 km/h (5 Bft) 96,17 %
08.10.2020 18:00 15,4 C 13,9 C 13,7 C 96 % 1012,5 hPa 0,2 l/m 0,00 h 0,30 h 11 W/m 31,3 km/h (5 Bft) 97,32 %
08.10.2020 19:00 15,5 C 14,3 C 13,7 C 97 % 1012,7 hPa 0,0 l/m 0,00 h 0,00 h 0 W/m 31,0 km/h (5 Bft) 98,42 %
08.10.2020 20:00 16,0 C 14,7 C 14,0 C 95 % 1013,0 hPa 0,0 l/m 0,00 h 0,30 h 0 W/m 24,8 km/h (4 Bft) 96,88 %
08.10.2020 21:00 15,5 C 13,5 C 13,4 C 96 % 1014,1 hPa 1,8 l/m 0,00 h 0,60 h 0 W/m 14,3 km/h (3 Bft) 98,22 %
08.10.2020 22:00 13,8 C 12,2 C 12,2 C 97 % 1015,5 hPa 0,0 l/m 0,00 h 0,13 h 0 W/m 5,3 km/h (1 Bft) 96,88 %
08.10.2020 23:00 13,5 C 12,2 C 12,2 C 98 % 1016,5 hPa 0,0 l/m 0,00 h 0,00 h 0 W/m 3,3 km/h (1 Bft) 98,02 %
09.10.2020 00:00 13,0 C 11,7 C 11,5 C 98 % 1017,1 hPa 0,0 l/m 0,00 h 0,00 h 0 W/m 3,2 km/h (1 Bft) 99,48 %
09.10.2020 01:00 12,4 C 11,1 C 11,1 C 98 % 1017,8 hPa 0,0 l/m 0,00 h 0,00 h 0 W/m 0,9 km/h (0 Bft) 94,94 %
09.10.2020 02:00 12,0 C 10,6 C 10,8 C 98 % 1018,2 hPa 0,0 l/m 0,00 h 0,00 h 0 W/m 0,0 km/h (0 Bft) 97,58 %
09.10.2020 03:00 11,7 C 10,5 C 10,5 C 98 % 1018,3 hPa 0,0 l/m 0,00 h 0,00 h 0 W/m 0,0 km/h (0 Bft) 99,21 %
09.10.2020 04:00 11,4 C 9,9 C 9,6 C 98 % 1018,3 hPa 0,0 l/m 0,00 h 0,00 h 0 W/m 0,0 km/h (0 Bft) 94,88 %
09.10.2020 05:00 10,8 C 9,4 C 9,1 C 98 % 1018,3 hPa 0,0 l/m 0,00 h 0,00 h 0 W/m 0,0 km/h (0 Bft) 99,01 %
09.10.2020 06:00 10,3 C 8,4 C 8,4 C 98 % 1018,3 hPa 0,0 l/m 0,00 h 0,00 h 0 W/m 0,0 km/h (0 Bft) 95,92 %
09.10.2020 07:00 9,3 C 7,8 C 7,6 C 98 % 1018,3 hPa 0,0 l/m 0,00 h 0,00 h 3 W/m 0,0 km/h (0 Bft) 96,01 %
09.10.2020 08:00 9,4 C 9,3 C 9,2 C 98 % 1018,5 hPa 0,2 l/m 0,00 h 0,00 h 26 W/m 0,0 km/h (0 Bft) 97,87 %
09.10.2020 09:00 10,6 C 10,9 C 10,5 C 99 % 1018,7 hPa 0,0 l/m 0,00 h 0,00 h 74 W/m 0,0 km/h (0 Bft) 97,29 %
09.10.2020 10:00 12,1 C 12,9 C 11,7 C 100 % 1018,7 hPa 0,0 l/m 0,03 h 0,00 h 148 W/m 1,2 km/h (1 Bft) 98,29 %
09.10.2020 11:00 13,0 C 14,6 C 12,7 C 100 % 1018,5 hPa 0,0 l/m 0,77 h 0,00 h 243 W/m 3,4 km/h (1 Bft) 97,44 %
09.10.2020 12:00 14,1 C 16,7 C 13,0 C 99 % 1018,2 hPa 0,0 l/m 0,53 h 0,00 h 253 W/m 6,9 km/h (2 Bft) 96,01 %
09.10.2020 13:00 14,9 C 16,1 C 13,2 C 91 % 1017,9 hPa 0,0 l/m 0,20 h 0,00 h 205 W/m 4,3 km/h (1 Bft) 97,65 %
09.10.2020 14:00 16,0 C 17,7 C 13,6 C 80 % 1017,7 hPa 0,0 l/m 0,33 h 0,00 h 248 W/m 11,8 km/h (2 Bft) 97,75 %
09.10.2020 15:00 15,9 C 16,9 C 13,1 C 73 % 1017,5 hPa 0,0 l/m 0,33 h 0,00 h 229 W/m 9,7 km/h (2 Bft) 98,04 %
09.10.2020 16:00 16,5 C 18,8 C 15,4 C 72 % 1017,1 hPa 0,0 l/m 0,90 h 0,00 h 314 W/m 10,8 km/h (2 Bft) 95,88 %
09.10.2020 17:00 16,4 C 15,7 C 13,4 C 69 % 1017,0 hPa 0,0 l/m 0,33 h 0,00 h 94 W/m 4,9 km/h (1 Bft) 96,36 %
09.10.2020 18:00 14,6 C 12,6 C 11,1 C 75 % 1017,0 hPa 0,0 l/m 0,00 h 0,00 h 18 W/m 0,1 km/h (0 Bft) 99,12 %
09.10.2020 19:00 13,3 C 11,3 C 10,6 C 82 % 1017,2 hPa 0,2 l/m 0,00 h 0,37 h 0 W/m 0,3 km/h (0 Bft) 96,37 %
09.10.2020 20:00 12,4 C 10,1 C 10,3 C 89 % 1017,4 hPa 0,4 l/m 0,00 h 0,70 h 0 W/m 1,4 km/h (1 Bft) 98,73 %
09.10.2020 21:00 11,9 C 10,0 C 10,0 C 93 % 1017,3 hPa 0,2 l/m 0,00 h 0,43 h 0 W/m 1,3 km/h (1 Bft) 95,66 %
09.10.2020 22:00 11,4 C 10,0 C 9,6 C 95 % 1017,3 hPa 0,0 l/m 0,00 h 0,00 h 0 W/m 2,5 km/h (1 Bft) 97,51 %
09.10.2020 23:00 11,0 C 9,7 C 9,6 C 96 % 1017,3 hPa 0,0 l/m 0,00 h 0,00 h 0 W/m 7,3 km/h (2 Bft) 97,93 %
10.10.2020 00:00 10,6 C 9,4 C 9,4 C 96 % 1017,3 hPa 0,0 l/m 0,00 h 0,00 h 0 W/m 11,5 km/h (2 Bft) 98,82 %
10.10.2020 01:00 10,7 C 9,7 C 9,4 C 93 % 1017,5 hPa 0,0 l/m 0,00 h 0,00 h 0 W/m 9,8 km/h (2 Bft) 95,80 %
10.10.2020 02:00 10,4 C 9,2 C 9,2 C 93 % 1017,9 hPa 0,0 l/m 0,00 h 0,23 h 0 W/m 3,3 km/h (1 Bft) 95,79 %
10.10.2020 03:00 10,0 C 8,8 C 8,7 C 93 % 1018,2 hPa 0,0 l/m 0,00 h 0,00 h 0 W/m 3,6 km/h (1 Bft) 99,78 %
10.10.2020 04:00 9,3 C 8,0 C 8,0 C 94 % 1018,5 hPa 0,0 l/m 0,00 h 0,00 h 0 W/m 3,0 km/h (1 Bft) 96,72 %
10.10.2020 05:00 8,5 C 7,2 C 7,2 C 94 % 1018,7 hPa 0,0 l/m 0,00 h 0,00 h 0 W/m 4,4 km/h (1 Bft) 96,96 %
10.10.2020 06:00 8,1 C 7,0 C 7,0 C 96 % 1019,1 hPa 0,0 l/m 0,00 h 0,00 h 0 W/m 6,1 km/h (2 Bft) 96,46 %
10.10.2020 07:00 7,5 C 6,5 C 6,7 C 96 % 1019,4 hPa 0,0 l/m 0,00 h 0,00 h 1 W/m 4,7 km/h (1 Bft) 96,22 %
10.10.2020 08:00 7,2 C 6,7 C 6,5 C 97 % 1019,8 hPa 0,0 l/m 0,00 h 0,00 h 16 W/m 7,8 km/h (2 Bft) 97,85 %
10.10.2020 09:00 7,8 C 8,2 C 7,3 C 97 % 1020,3 hPa 0,0 l/m 0,13 h 0,00 h 65 W/m 10,5 km/h (2 Bft) 98,07 %
10.10.2020 10:00 9,9 C 14,5 C 9,2 C 92 % 1020,7 hPa 0,0 l/m 1,00 h 0,00 h 363 W/m 15,2 km/h (3 Bft) 97,86 %
10.10.2020 11:00 11,9 C 14,6 C 10,8 C 82 % 1020,9 hPa 0,0 l/m 0,73 h 0,00 h 370 W/m 15,8 km/h (3 Bft) 99,01 %
10.10.2020 12:00 12,7 C 14,7 C 11,5 C 77 % 1021,0 hPa 0,0 l/m 0,60 h 0,00 h 360 W/m 15,9 km/h (3 Bft) 97,16 %
10.10.2020 13:00 13,2 C 16,5 C 12,2 C 75 % 1020,9 hPa 0,0 l/m 0,63 h 0,00 h 444 W/m 14,5 km/h (3 Bft) 97,45 %
10.10.2020 14:00 14,5 C 17,2 C 12,9 C 70 % 1020,5 hPa 0,0 l/m 0,70 h 0,00 h 410 W/m 15,2 km/h (3 Bft) 95,31 %
10.10.2020 15:00 13,4 C 12,0 C 11,4 C 72 % 1020,2 hPa 0,0 l/m 0,00 h 0,10 h 88 W/m 15,0 km/h (3 Bft) 98,86 %
10.10.2020 16:00 12,1 C 11,5 C 10,7 C 76 % 1020,0 hPa 0,0 l/m 0,00 h 0,03 h 68 W/m 17,3 km/h (3 Bft) 98,65 %
10.10.2020 17:00 11,8 C 11,4 C 10,6 C 75 % 1019,6 hPa 0,0 l/m 0,07 h 0,00 h 40 W/m 14,7 km/h (3 Bft) 95,15 %
10.10.2020 18:00 11,8 C 10,9 C 10,5 C 72 % 1019,4 hPa 0,0 l/m 0,00 h 0,03 h 13 W/m 21,1 km/h (4 Bft) 99,34 %
10.10.2020 19:00 11,2 C 9,8 C 9,5 C 77 % 1019,3 hPa 0,0 l/m 0,00 h 0,23 h 0 W/m 19,2 km/h (3 Bft) 98,06 %
10.10.2020 20:00 10,7 C 9,7 C 9,3 C 81 % 1019,2 hPa 0,2 l/m 0,00 h 0,10 h 0 W/m 17,3 km/h (3 Bft) 95,51 %
10.10.2020 21:00 9,9 C 7,8 C 7,8 C 89 % 1019,2 hPa 0,6 l/m 0,00 h 0,77 h 0 W/m 12,6 km/h (3 Bft) 99,36 %
10.10.2020 22:00 9,0 C 7,7 C 7,7 C 94 % 1018,9 hPa 0,0 l/m 0,00 h 0,00 h 0 W/m 11,4 km/h (2 Bft) 97,80 %
10.10.2020 23:00 8,8 C 7,8 C 7,8 C 95 % 1019,2 hPa 0,0 l/m 0,00 h 0,00 h 0 W/m 10,3 km/h (2 Bft) 96,17 %
11.10.2020 00:00 8,7 C 7,8 C 7,8 C 96 % 1019,3 hPa 0,0 l/m 0,00 h 0,00 h 0 W/m 9,2 km/h (2 Bft) 96,01 %
11.10.2020 01:00 8,4 C 7,0 C 7,1 C 96 % 1019,4 hPa 0,0 l/m 0,00 h 0,00 h 0 W/m 4,4 km/h (1 Bft) 98,70 %
11.10.2020 02:00 7,7 C 6,5 C 6,6 C 96 % 1019,5 hPa 0,0 l/m 0,00 h 0,00 h 0 W/m 1,6 km/h (1 Bft) 97,64 %
11.10.2020 03:00 8,0 C 7,2 C 7,2 C 97 % 1019,7 hPa 0,0 l/m 0,00 h 0,00 h 0 W/m 2,7 km/h (1 Bft) 95,82 %
11.10.2020 04:00 7,9 C 6,9 C 7,2 C 97 % 1019,7 hPa 0,0 l/m 0,00 h 0,00 h 0 W/m 1,8 km/h (1 Bft) 98,21 %
11.10.2020 05:00 7,7 C 6,8 C 6,9 C 98 % 1019,9 hPa 0,0 l/m 0,00 h 0,00 h 0 W/m 1,2 km/h (1 Bft) 94,24 %
11.10.2020 06:00 7,2 C 5,9 C 5,9 C 98 % 1019,8 hPa 0,0 l/m 0,00 h 0,00 h 0 W/m 0,4 km/h (0 Bft) 98,13 %
11.10.2020 07:00 7,1 C 6,2 C 6,3 C 98 % 1019,7 hPa 0,0 l/m 0,00 h 0,00 h 5 W/m 4,6 km/h (1 Bft) 99,00 %
11.10.2020 08:00 7,2 C 6,7 C 6,7 C 98 % 1019,9 hPa 0,0 l/m 0,00 h 0,00 h 20 W/m 7,0 km/h (2 Bft) 93,93 %
11.10.2020 09:00 7,3 C 7,5 C 7,0 C 98 % 1020,2 hPa 0,2 l/m 0,07 h 0,00 h 76 W/m 5,1 km/h (1 Bft) 98,02 %
11.10.2020 10:00 8,3 C 11,5 C 8,2 C 98 % 1020,4 hPa 0,0 l/m 0,57 h 0,00 h 245 W/m 8,4 km/h (2 Bft) 97,44 %
11.10.2020 11:00 10,7 C 15,6 C 10,1 C 94 % 1020,3 hPa 0,0 l/m 1,00 h 0,00 h 459 W/m 11,1 km/h (2 Bft) 95,43 %
11.10.2020 12:00 13,1 C 17,7 C 11,1 C 82 % 1020,1 hPa 0,0 l/m 0,87 h 0,00 h 463 W/m 11,3 km/h (2 Bft) 95,99 %
11.10.2020 13:00 13,9 C 17,8 C 11,8 C 76 % 1020,0 hPa 0,0 l/m 0,83 h 0,00 h 533 W/m 13,5 km/h (3 Bft) 96,11 %
11.10.2020 14:00 14,1 C 16,1 C 12,1 C 75 % 1019,8 hPa 0,0 l/m 0,50 h 0,00 h 311 W/m 7,3 km/h (2 Bft) 96,45 %
11.10.2020 15:00 14,3 C 16,4 C 12,5 C 75 % 1019,5 hPa 0,0 l/m 0,53 h 0,00 h 290 W/m 10,5 km/h (2 Bft) 96,73 %
11.10.2020 16:00 13,5 C 11,8 C 11,2 C 78 % 1019,5 hPa 0,2 l/m 0,00 h 0,37 h 67 W/m 6,5 km/h (2 Bft) 99,43 %
11.10.2020 17:00 11,7 C 10,1 C 9,8 C 90 % 1019,8 hPa 0,2 l/m 0,10 h 0,10 h 61 W/m 2,3 km/h (1 Bft) 94,03 %
11.10.2020 18:00 10,9 C 9,3 C 9,4 C 93 % 1020,2 hPa 0,0 l/m 0,00 h 0,27 h 9 W/m 4,7 km/h (1 Bft) 96,92 %
11.10.2020 19:00 10,3 C 8,7 C 8,9 C 94 % 1020,6 hPa 0,0 l/m 0,00 h 0,00 h 0 W/m 1,2 km/h (1 Bft) 97,86 %
11.10.2020 20:00 9,7 C 8,3 C 8,4 C 95 % 1020,9 hPa 0,0 l/m 0,00 h 0,00 h 0 W/m 1,9 km/h (1 Bft) 97,21 %
11.10.2020 21:00 9,4 C 7,9 C 8,0 C 96 % 1020,9 hPa 0,0 l/m 0,00 h 0,00 h 0 W/m 1,7 km/h (1 Bft) 95,25 %
11.10.2020 22:00 8,9 C 7,7 C 7,6 C 96 % 1021,0 hPa 0,2 l/m 0,00 h 0,00 h 0 W/m 1,6 km/h (1 Bft) 96,21 %
11.10.2020 23:00 8,9 C 7,9 C 8,0 C 97 % 1021,1 hPa 0,0 l/m 0,00 h 0,00 h 0 W/m 0,4 km/h (0 Bft) 97,31 %
Min-Datum _ 11.10.20 11.10.20 11.10.20 09.10.20 05.10.20 - - - - 05.10.20 06.10.20
_ Min-Zeit 06:44 06:16 06:16 17:20 03:55 - - - - 19:14 04:24
Minimum _ 7,0 C 5,6 C 5,6 C 67 % 997,9 hPa - - - - 0,0 km/h (0 Bft) 41,18 %
Max-Datum _ 08.10.20 09.10.20 06.10.20 09.10.20 10.10.20 07.10.20 10.10.20 07.10.20 10.10.20 08.10.20 05.10.20
_ Max-Zeit 16:24 14:02 16:48 09:50 12:38 07:40 12:08 06:08 13:36 16:16 00:08
Maximum _ 17,6 C 23,3 C 18,9 C 100 % 1021,2 hPa 5,0 l/m 0,07 h 0,07 h 743 W/m 61,2 km/h
SO (7 Bft)
100,00 %
Durchschnitt _ 12,0 C 11,4 C 10,6 C 91 % 1011,7 hPa #18,2 l/m #16:14 h #16:56 h 137 W/m 12,5 km/h (3 Bft) 97,18 %
© 2020 W. Hausmann